createdAt,value
2016-08-18T00:00:00.385Z,21.82
2016-08-18T00:01:00.443Z,21.89
2016-08-18T00:01:59.726Z,21.83
2016-08-18T00:03:00.469Z,21.91
2016-08-18T00:04:01.206Z,21.92
2016-08-18T00:04:59.825Z,21.85
2016-08-18T00:05:59.833Z,21.79
2016-08-18T00:07:01.385Z,21.69
2016-08-18T00:07:59.901Z,21.76
2016-08-18T00:09:15.557Z,21.75
2016-08-18T00:10:01.385Z,21.77
2016-08-18T00:11:01.399Z,21.79
2016-08-18T00:12:00.717Z,21.82
2016-08-18T00:13:01.490Z,21.83
2016-08-18T00:14:00.097Z,21.77
2016-08-18T00:15:00.787Z,21.77
2016-08-18T00:16:00.845Z,21.75
2016-08-18T00:17:00.161Z,21.75
2016-08-18T00:18:00.892Z,21.75
2016-08-18T00:19:01.623Z,21.82
2016-08-18T00:20:00.253Z,21.85
2016-08-18T00:21:00.977Z,21.82
2016-08-18T00:22:00.988Z,21.85
2016-08-18T00:23:01.727Z,21.75
2016-08-18T00:24:01.037Z,21.73
2016-08-18T00:25:01.110Z,21.79
2016-08-18T00:26:01.105Z,21.75
2016-08-18T00:27:00.399Z,21.8
2016-08-18T00:28:00.447Z,21.75
2016-08-18T00:29:00.481Z,21.75
2016-08-18T00:30:00.490Z,21.77
2016-08-18T00:31:00.537Z,21.82
2016-08-18T00:32:01.998Z,21.79
2016-08-18T00:33:01.992Z,21.79
2016-08-18T00:34:00.582Z,21.76
2016-08-18T00:35:02.033Z,21.77
2016-08-18T00:36:01.415Z,21.83
2016-08-18T00:37:00.687Z,21.82
2016-08-18T00:38:01.401Z,21.8
2016-08-18T00:39:02.142Z,21.82
2016-08-18T00:40:00.735Z,21.79
2016-08-18T00:41:01.480Z,21.79
2016-08-18T00:42:00.796Z,21.8
2016-08-18T00:43:01.535Z,21.77
2016-08-18T00:44:01.551Z,21.79
2016-08-18T00:45:01.645Z,21.77
2016-08-18T00:46:00.897Z,21.77
2016-08-18T00:47:01.659Z,21.72
2016-08-18T00:48:01.664Z,21.64
2016-08-18T00:49:02.407Z,21.72
2016-08-18T00:50:01.015Z,21.7
2016-08-18T00:51:01.754Z,21.72
2016-08-18T00:52:01.776Z,21.66
2016-08-18T00:53:01.794Z,21.77
2016-08-18T00:54:35.314Z,21.69
2016-08-18T00:55:01.839Z,21.79
2016-08-18T00:56:01.163Z,21.77
2016-08-18T00:57:02.605Z,21.69
2016-08-18T00:58:01.924Z,21.69
2016-08-18T00:59:01.956Z,21.72
2016-08-18T01:00:01.266Z,21.72
2016-08-18T01:01:01.295Z,21.72
2016-08-18T01:02:02.037Z,21.69
2016-08-18T01:03:01.348Z,21.64
2016-08-18T01:04:01.376Z,21.73
2016-08-18T01:05:01.417Z,21.72
2016-08-18T01:06:02.844Z,21.7
2016-08-18T01:07:01.468Z,21.69
2016-08-18T01:08:02.196Z,21.61
2016-08-18T01:09:01.515Z,21.66
2016-08-18T01:10:02.252Z,21.61
2016-08-18T01:11:01.566Z,21.64
2016-08-18T01:12:01.589Z,21.54
2016-08-18T01:13:02.332Z,21.52
2016-08-18T01:14:01.662Z,21.5
2016-08-18T01:15:01.673Z,21.52
2016-08-18T01:16:03.120Z,21.51
2016-08-18T01:17:01.727Z,21.51
2016-08-18T01:18:02.471Z,21.48
2016-08-18T01:19:01.777Z,21.51
2016-08-18T01:20:01.823Z,21.57
2016-08-18T01:21:01.830Z,21.62
2016-08-18T01:22:01.880Z,21.6
2016-08-18T01:23:02.596Z,21.69
2016-08-18T01:24:01.923Z,21.67
2016-08-18T01:25:02.649Z,21.7
2016-08-18T01:26:02.677Z,21.67
2016-08-18T01:27:02.704Z,21.7
2016-08-18T01:28:02.731Z,21.69
2016-08-18T01:29:02.761Z,21.69
2016-08-18T01:30:02.784Z,21.72
2016-08-18T01:31:02.818Z,21.72
2016-08-18T01:32:03.544Z,21.72
2016-08-18T01:33:02.874Z,21.73
2016-08-18T01:34:02.895Z,21.66
2016-08-18T01:35:02.919Z,21.7
2016-08-18T01:36:02.952Z,21.75
2016-08-18T01:37:02.983Z,21.72
2016-08-18T01:38:03.000Z,21.67
2016-08-18T01:39:02.323Z,21.51
2016-08-18T01:40:03.052Z,21.54
2016-08-18T01:41:02.370Z,21.62
2016-08-18T01:42:03.816Z,21.62
2016-08-18T01:43:03.843Z,21.64
2016-08-18T01:44:03.170Z,21.64
2016-08-18T01:45:03.202Z,21.72
2016-08-18T01:46:03.925Z,21.72
2016-08-18T01:47:03.242Z,21.66
2016-08-18T01:48:03.264Z,21.73
2016-08-18T01:49:03.310Z,21.72
2016-08-18T01:50:03.351Z,21.66
2016-08-18T01:51:04.094Z,21.73
2016-08-18T01:52:03.426Z,21.66
2016-08-18T01:53:04.364Z,21.64
2016-08-18T01:54:04.188Z,21.7
2016-08-18T01:55:04.173Z,21.73
2016-08-18T01:56:03.513Z,21.76
2016-08-18T01:57:03.522Z,21.8
2016-08-18T01:58:02.834Z,21.69
2016-08-18T01:59:03.566Z,21.67
2016-08-18T02:00:02.898Z,21.69
2016-08-18T02:01:02.910Z,21.66
2016-08-18T02:02:03.646Z,21.69
2016-08-18T02:03:02.973Z,21.64
2016-08-18T02:04:03.700Z,21.58
2016-08-18T02:05:04.455Z,21.55
2016-08-18T02:06:04.464Z,21.55
2016-08-18T02:07:03.776Z,21.62
2016-08-18T02:08:03.093Z,21.6
2016-08-18T02:09:03.145Z,21.64
2016-08-18T02:11:03.207Z,21.64
2016-08-18T02:12:03.905Z,21.66
2016-08-18T02:13:03.943Z,21.73
2016-08-18T02:14:03.971Z,21.69
2016-08-18T02:15:04.003Z,21.75
2016-08-18T02:16:04.035Z,21.6
2016-08-18T02:17:04.051Z,21.69
2016-08-18T02:18:04.093Z,21.61
2016-08-18T02:19:04.104Z,21.52
2016-08-18T02:20:03.419Z,21.6
2016-08-18T02:21:04.160Z,21.54
2016-08-18T02:22:04.180Z,21.54
2016-08-18T02:23:03.495Z,21.51
2016-08-18T02:24:04.962Z,21.48
2016-08-18T02:25:04.261Z,21.48
2016-08-18T02:26:04.283Z,21.48
2016-08-18T02:27:05.023Z,21.5
2016-08-18T02:28:04.339Z,21.45
2016-08-18T02:29:04.366Z,21.5
2016-08-18T02:30:04.393Z,21.5
2016-08-18T02:31:05.180Z,21.46
2016-08-18T02:32:04.449Z,21.46
2016-08-18T02:33:03.765Z,21.43
2016-08-18T02:34:04.512Z,21.46
2016-08-18T02:35:05.236Z,21.4
2016-08-18T02:36:04.576Z,21.5
2016-08-18T02:37:05.310Z,21.51
2016-08-18T02:38:03.929Z,21.43
2016-08-18T02:39:05.359Z,21.48
2016-08-18T02:40:03.948Z,21.48
2016-08-18T02:41:04.709Z,21.45
2016-08-18T02:42:04.002Z,21.42
2016-08-18T02:43:04.057Z,21.42
2016-08-18T02:44:04.763Z,21.4
2016-08-18T02:45:04.085Z,21.43
2016-08-18T02:46:04.828Z,21.43
2016-08-18T02:47:04.879Z,21.46
2016-08-18T02:48:04.928Z,21.42
2016-08-18T02:49:05.156Z,21.48
2016-08-18T02:50:04.950Z,21.48
2016-08-18T02:51:04.242Z,21.48
2016-08-18T02:52:04.266Z,21.46
2016-08-18T02:53:04.292Z,21.46
2016-08-18T02:54:05.027Z,21.46
2016-08-18T02:55:04.348Z,21.45
2016-08-18T02:56:05.081Z,21.48
2016-08-18T02:57:05.128Z,21.51
2016-08-18T02:58:04.429Z,21.5
2016-08-18T02:59:04.460Z,21.42
2016-08-18T03:00:04.481Z,21.45
2016-08-18T03:01:05.925Z,21.48
2016-08-18T03:02:05.242Z,21.5
2016-08-18T03:03:05.272Z,21.43
2016-08-18T03:04:04.582Z,21.48
2016-08-18T03:05:05.346Z,21.33
2016-08-18T03:06:04.670Z,21.3
2016-08-18T03:07:05.383Z,21.24
2016-08-18T03:08:05.399Z,21.12
2016-08-18T03:09:04.728Z,21.05
2016-08-18T03:10:04.746Z,21.03
2016-08-18T03:11:05.492Z,20.99
2016-08-18T03:12:05.513Z,21
2016-08-18T03:13:04.841Z,21.02
2016-08-18T03:14:05.560Z,20.95
2016-08-18T03:15:05.595Z,20.97
2016-08-18T03:16:05.619Z,20.92
2016-08-18T03:17:05.640Z,20.93
2016-08-18T03:18:05.667Z,20.84
2016-08-18T03:19:04.984Z,20.93
2016-08-18T03:20:05.015Z,20.75
2016-08-18T03:21:05.778Z,20.77
2016-08-18T03:22:06.484Z,20.72
2016-08-18T03:23:06.511Z,20.75
2016-08-18T03:24:06.556Z,20.75
2016-08-18T03:25:05.159Z,20.77
2016-08-18T03:26:06.608Z,20.72
2016-08-18T03:27:05.205Z,20.72
2016-08-18T03:28:06.656Z,20.69
2016-08-18T03:29:06.683Z,20.74
2016-08-18T03:30:06.708Z,20.63
2016-08-18T03:31:05.305Z,20.65
2016-08-18T03:32:06.748Z,20.58
2016-08-18T03:33:09.808Z,20.55
2016-08-18T03:34:05.378Z,20.55
2016-08-18T03:35:05.407Z,20.56
2016-08-18T03:36:06.140Z,20.58
2016-08-18T03:37:05.463Z,20.56
2016-08-18T03:38:06.193Z,20.52
2016-08-18T03:39:06.222Z,20.52
2016-08-18T03:40:05.534Z,20.4
2016-08-18T03:41:06.276Z,20.51
2016-08-18T03:42:07.006Z,20.48
2016-08-18T03:43:07.035Z,20.43
2016-08-18T03:44:06.350Z,20.39
2016-08-18T03:45:06.387Z,20.44
2016-08-18T03:46:05.694Z,20.44
2016-08-18T03:47:06.429Z,20.56
2016-08-18T03:48:07.162Z,20.56
2016-08-18T03:49:06.481Z,20.52
2016-08-18T03:50:05.794Z,20.55
2016-08-18T03:51:06.534Z,20.66
2016-08-18T03:52:07.273Z,20.69
2016-08-18T03:53:06.588Z,20.75
2016-08-18T03:54:06.615Z,20.7
2016-08-18T03:55:06.636Z,20.7
2016-08-18T03:56:06.665Z,20.72
2016-08-18T03:57:06.691Z,20.67
2016-08-18T03:58:06.718Z,20.69
2016-08-18T03:59:06.762Z,20.69
2016-08-18T04:00:06.774Z,20.67
2016-08-18T04:01:06.801Z,20.69
2016-08-18T04:02:06.822Z,20.7
2016-08-18T04:03:06.851Z,20.7
2016-08-18T04:04:07.588Z,20.69
2016-08-18T04:05:06.901Z,20.7
2016-08-18T04:06:07.640Z,20.7
2016-08-18T04:07:06.241Z,20.67
2016-08-18T04:08:06.986Z,20.77
2016-08-18T04:09:07.715Z,20.78
2016-08-18T04:10:07.029Z,20.77
2016-08-18T04:11:07.054Z,20.72
2016-08-18T04:12:07.790Z,20.7
2016-08-18T04:13:06.410Z,20.8
2016-08-18T04:14:07.135Z,20.77
2016-08-18T04:15:06.451Z,20.74
2016-08-18T04:16:07.204Z,20.8
2016-08-18T04:17:06.506Z,20.9
2016-08-18T04:18:07.950Z,20.9
2016-08-18T04:19:07.277Z,20.85
2016-08-18T04:20:07.294Z,20.95
2016-08-18T04:21:08.033Z,20.87
2016-08-18T04:22:06.637Z,20.97
2016-08-18T04:23:07.371Z,20.99
2016-08-18T04:24:07.420Z,21.03
2016-08-18T04:25:06.717Z,21.02
2016-08-18T04:26:06.744Z,21.06
2016-08-18T04:27:06.776Z,20.96
2016-08-18T04:28:07.509Z,20.95
2016-08-18T04:29:06.823Z,21.02
2016-08-18T04:30:07.555Z,21.02
2016-08-18T04:31:08.296Z,21.02
2016-08-18T04:32:07.637Z,21.05
2016-08-18T04:33:08.347Z,21
2016-08-18T04:34:06.950Z,21.05
2016-08-18T04:35:08.401Z,21.03
2016-08-18T04:36:07.711Z,20.99
2016-08-18T04:37:07.740Z,21.03
2016-08-18T04:38:07.769Z,21.06
2016-08-18T04:39:07.085Z,20.97
2016-08-18T04:40:07.820Z,21.05
2016-08-18T04:41:07.857Z,21.05
2016-08-18T04:42:07.872Z,21.02
2016-08-18T04:43:07.894Z,21.05
2016-08-18T04:44:07.923Z,21.07
2016-08-18T04:45:07.947Z,21
2016-08-18T04:46:07.976Z,21.07
2016-08-18T04:47:08.710Z,21.09
2016-08-18T04:48:08.031Z,21.06
2016-08-18T04:49:08.770Z,21.03
2016-08-18T04:50:08.081Z,21.03
2016-08-18T04:51:08.822Z,21.05
2016-08-18T04:52:07.428Z,21.02
2016-08-18T04:53:08.871Z,21
2016-08-18T04:54:08.188Z,21.03
2016-08-18T04:55:07.504Z,21.07
2016-08-18T04:56:08.256Z,21.05
2016-08-18T04:57:08.973Z,21.03
2016-08-18T04:58:07.594Z,21.05
2016-08-18T04:59:09.035Z,21
2016-08-18T05:00:07.651Z,21.03
2016-08-18T05:01:07.661Z,21.03
2016-08-18T05:02:08.399Z,21.06
2016-08-18T05:03:07.713Z,21.06
2016-08-18T05:04:07.743Z,21.03
2016-08-18T05:05:09.225Z,21.18
2016-08-18T05:06:08.523Z,21.14
2016-08-18T05:07:09.298Z,21.17
2016-08-18T05:08:09.364Z,21.2
2016-08-18T05:09:08.649Z,21.25
2016-08-18T05:10:09.438Z,21.12
2016-08-18T05:11:08.004Z,21.22
2016-08-18T05:12:08.743Z,21.17
2016-08-18T05:13:09.499Z,21.15
2016-08-18T05:14:09.436Z,21.22
2016-08-18T05:15:09.558Z,21.22
2016-08-18T05:16:08.822Z,21.35
2016-08-18T05:17:08.115Z,21.27
2016-08-18T05:18:09.632Z,21.36
2016-08-18T05:19:08.920Z,21.33
2016-08-18T05:20:08.964Z,21.35
2016-08-18T05:21:09.003Z,21.32
2016-08-18T05:22:09.021Z,21.35
2016-08-18T05:23:09.765Z,21.36
2016-08-18T05:24:09.022Z,21.35
2016-08-18T05:25:08.335Z,21.32
2016-08-18T05:26:09.837Z,21.4
2016-08-18T05:27:09.836Z,21.36
2016-08-18T05:28:09.161Z,21.37
2016-08-18T05:29:09.137Z,21.3
2016-08-18T05:30:09.151Z,21.39
2016-08-18T05:31:08.492Z,21.3
2016-08-18T05:32:08.501Z,21.36
2016-08-18T05:33:09.976Z,21.37
2016-08-18T05:34:09.956Z,21.25
2016-08-18T05:35:09.984Z,21.27
2016-08-18T05:36:09.315Z,21.3
2016-08-18T05:37:09.325Z,21.32
2016-08-18T05:38:08.639Z,21.27
2016-08-18T05:39:09.389Z,21.32
2016-08-18T05:40:10.116Z,21.32
2016-08-18T05:41:10.137Z,21.3
2016-08-18T05:42:08.746Z,21.24
2016-08-18T05:43:08.776Z,21.27
2016-08-18T05:44:09.529Z,21.22
2016-08-18T05:45:09.541Z,21.2
2016-08-18T05:46:09.574Z,21.24
2016-08-18T05:47:08.880Z,21.15
2016-08-18T05:48:10.330Z,21.21
2016-08-18T05:49:09.649Z,21.22
2016-08-18T05:50:10.376Z,21.2
2016-08-18T05:51:09.695Z,21.27
2016-08-18T05:52:09.205Z,21.27
2016-08-18T05:53:09.037Z,21.15
2016-08-18T05:54:14.776Z,21.29
2016-08-18T05:55:09.805Z,21.25
2016-08-18T05:56:10.718Z,21.27
2016-08-18T05:57:09.853Z,21.27
2016-08-18T05:58:09.882Z,21.25
2016-08-18T05:59:10.663Z,21.27
2016-08-18T06:00:09.961Z,21.3
2016-08-18T06:01:09.965Z,21.3
2016-08-18T06:02:09.986Z,21.27
2016-08-18T06:03:10.017Z,21.3
2016-08-18T06:04:10.036Z,21.35
2016-08-18T06:05:09.358Z,21.37
2016-08-18T06:06:10.803Z,21.29
2016-08-18T06:07:10.203Z,21.37
2016-08-18T06:08:09.466Z,21.35
2016-08-18T06:09:10.188Z,21.37
2016-08-18T06:10:09.576Z,21.35
2016-08-18T06:11:10.231Z,21.32
2016-08-18T06:12:09.540Z,21.33
2016-08-18T06:13:10.282Z,21.33
2016-08-18T06:14:11.017Z,21.3
2016-08-18T06:15:10.334Z,21.25
2016-08-18T06:16:10.359Z,21.27
2016-08-18T06:17:10.395Z,21.22
2016-08-18T06:18:11.192Z,21.14
2016-08-18T06:19:11.179Z,21.12
2016-08-18T06:20:10.561Z,21.17
2016-08-18T06:21:10.487Z,21.06
2016-08-18T06:22:10.514Z,21.15
2016-08-18T06:23:09.830Z,21.18
2016-08-18T06:24:11.333Z,21.17
2016-08-18T06:25:09.903Z,21.06
2016-08-18T06:26:10.619Z,21.14
2016-08-18T06:27:11.356Z,21.09
2016-08-18T06:28:10.674Z,21.05
2016-08-18T06:29:10.116Z,20.95
2016-08-18T06:30:10.018Z,21
2016-08-18T06:31:10.753Z,21.03
2016-08-18T06:32:10.073Z,21.03
2016-08-18T06:33:11.517Z,21.03
2016-08-18T06:34:10.133Z,21.05
2016-08-18T06:35:10.859Z,21.07
2016-08-18T06:36:10.885Z,21.06
2016-08-18T06:37:10.921Z,21.07
2016-08-18T06:38:10.933Z,21
2016-08-18T06:39:10.256Z,21.06
2016-08-18T06:40:11.840Z,21.03
2016-08-18T06:41:11.017Z,21.07
2016-08-18T06:42:11.044Z,21.02
2016-08-18T06:43:10.363Z,21.03
2016-08-18T06:44:11.095Z,21.14
2016-08-18T06:45:11.125Z,21.15
2016-08-18T06:46:11.161Z,21.27
2016-08-18T06:47:10.466Z,21.25
2016-08-18T06:48:11.928Z,21.24
2016-08-18T06:49:11.237Z,21.36
2016-08-18T06:50:10.566Z,21.36
2016-08-18T06:51:11.282Z,21.35
2016-08-18T06:52:11.311Z,21.32
2016-08-18T06:53:12.044Z,21.3
2016-08-18T06:54:11.379Z,21.3
2016-08-18T06:55:11.390Z,21.3
2016-08-18T06:56:12.122Z,21.32
2016-08-18T06:57:11.444Z,21.45
2016-08-18T06:58:11.460Z,21.32
2016-08-18T06:59:11.499Z,21.33
2016-08-18T07:00:11.723Z,21.4
2016-08-18T07:01:12.257Z,21.35
2016-08-18T07:02:10.857Z,21.35
2016-08-18T07:03:10.892Z,21.4
2016-08-18T07:04:11.658Z,21.46
2016-08-18T07:05:12.356Z,21.51
2016-08-18T07:06:10.999Z,21.54
2016-08-18T07:07:11.703Z,21.57
2016-08-18T07:08:11.023Z,21.52
2016-08-18T07:09:11.757Z,21.6
2016-08-18T07:10:12.612Z,21.54
2016-08-18T07:11:12.524Z,21.55
2016-08-18T07:12:11.126Z,21.62
2016-08-18T07:13:12.578Z,21.61
2016-08-18T07:14:12.596Z,21.67
2016-08-18T07:15:13.291Z,21.67
2016-08-18T07:16:11.228Z,21.67
2016-08-18T07:17:11.467Z,21.7
2016-08-18T07:18:11.998Z,21.72
2016-08-18T07:19:11.321Z,21.64
2016-08-18T07:20:12.760Z,21.73
2016-08-18T07:21:12.784Z,21.8
2016-08-18T07:22:12.101Z,21.77
2016-08-18T07:23:11.417Z,21.82
2016-08-18T07:24:11.445Z,21.79
2016-08-18T07:25:12.258Z,21.77
2016-08-18T07:26:12.205Z,21.77
2016-08-18T07:27:12.255Z,21.79
2016-08-18T07:28:12.271Z,21.79
2016-08-18T07:29:12.995Z,21.85
2016-08-18T07:30:12.321Z,21.8
2016-08-18T07:31:12.341Z,21.91
2016-08-18T07:32:12.372Z,21.83
2016-08-18T07:33:11.687Z,21.8
2016-08-18T07:34:12.422Z,21.88
2016-08-18T07:35:11.935Z,21.83
2016-08-18T07:36:16.888Z,21.89
2016-08-18T07:37:11.794Z,21.91
2016-08-18T07:38:11.831Z,21.92
2016-08-18T07:39:13.264Z,21.93
2016-08-18T07:40:11.872Z,21.95
2016-08-18T07:41:12.622Z,21.95
2016-08-18T07:42:12.661Z,21.95
2016-08-18T07:43:11.972Z,21.99
2016-08-18T07:44:13.397Z,21.95
2016-08-18T07:45:13.426Z,21.93
2016-08-18T07:46:12.035Z,21.96
2016-08-18T07:47:12.773Z,21.95
2016-08-18T07:48:13.504Z,22.02
2016-08-18T07:49:12.822Z,21.95
2016-08-18T07:50:12.215Z,21.95
2016-08-18T07:51:12.189Z,21.95
2016-08-18T07:52:12.914Z,21.98
2016-08-18T07:53:12.937Z,22
2016-08-18T07:54:13.666Z,22.02
2016-08-18T07:55:12.983Z,22.04
2016-08-18T07:56:12.313Z,22.11
2016-08-18T07:57:13.759Z,22.08
2016-08-18T07:58:12.366Z,22.13
2016-08-18T07:59:13.121Z,22.14
2016-08-18T08:00:13.830Z,22.13
2016-08-18T08:01:13.146Z,22.14
2016-08-18T08:02:13.880Z,22.2
2016-08-18T08:03:12.495Z,22.25
2016-08-18T08:04:12.528Z,22.32
2016-08-18T08:05:14.260Z,22.32
2016-08-18T08:06:13.281Z,22.26
2016-08-18T08:07:14.047Z,22.26
2016-08-18T08:08:12.629Z,22.29
2016-08-18T08:09:13.377Z,22.41
2016-08-18T08:10:12.681Z,22.39
2016-08-18T08:11:13.417Z,22.3
2016-08-18T08:12:13.445Z,22.41
2016-08-18T08:13:14.195Z,22.43
2016-08-18T08:14:13.510Z,22.43
2016-08-18T08:15:13.555Z,22.47
2016-08-18T08:16:14.262Z,22.51
2016-08-18T08:17:13.583Z,22.54
2016-08-18T08:18:13.609Z,22.65
2016-08-18T08:19:13.634Z,22.66
2016-08-18T08:20:13.726Z,22.78
2016-08-18T08:21:12.983Z,22.84
2016-08-18T08:22:14.426Z,22.78
2016-08-18T08:23:13.170Z,22.9
2016-08-18T08:24:13.772Z,22.84
2016-08-18T08:25:13.820Z,22.99
2016-08-18T08:26:13.436Z,23
2016-08-18T08:27:13.864Z,23.06
2016-08-18T08:28:13.943Z,23.12
2016-08-18T08:29:13.909Z,23.17
2016-08-18T08:30:14.905Z,23.31
2016-08-18T08:31:13.991Z,23.43
2016-08-18T08:32:14.096Z,23.36
2016-08-18T08:33:14.026Z,23.47
2016-08-18T08:34:15.498Z,23.59
2016-08-18T08:35:15.648Z,23.62
2016-08-18T08:36:14.429Z,23.71
2016-08-18T08:37:15.194Z,23.73
2016-08-18T08:38:14.874Z,23.83
2016-08-18T08:39:14.330Z,23.86
2016-08-18T08:40:19.031Z,23.81
2016-08-18T08:41:13.538Z,23.84
2016-08-18T08:42:14.987Z,23.86
2016-08-18T08:43:14.303Z,23.91
2016-08-18T08:44:14.327Z,23.98
2016-08-18T08:45:14.397Z,23.92
2016-08-18T08:46:13.677Z,23.92
2016-08-18T08:47:14.422Z,23.99
2016-08-18T08:48:14.442Z,24.13
2016-08-18T08:49:13.937Z,24.17
2016-08-18T08:50:14.502Z,24.21
2016-08-18T08:51:14.579Z,24.29
2016-08-18T08:52:14.558Z,24.35
2016-08-18T08:53:13.870Z,24.39
2016-08-18T08:54:15.503Z,24.24
2016-08-18T08:55:14.436Z,24.47
2016-08-18T08:56:16.035Z,24.54
2016-08-18T08:57:14.078Z,24.55
2016-08-18T08:58:14.728Z,24.73
2016-08-18T08:59:14.483Z,24.86
2016-08-18T09:00:15.577Z,24.96
2016-08-18T09:01:14.868Z,25.04
2016-08-18T09:02:14.843Z,25.1
2016-08-18T09:03:14.990Z,25.08
2016-08-18T09:04:14.189Z,25.14
2016-08-18T09:05:15.895Z,25.18
2016-08-18T09:06:14.514Z,25.32
2016-08-18T09:07:15.701Z,25.36
2016-08-18T09:08:15.019Z,25.43
2016-08-18T09:09:15.048Z,25.43
2016-08-18T09:10:15.078Z,25.58
2016-08-18T09:11:14.391Z,25.68
2016-08-18T09:12:15.845Z,25.65
2016-08-18T09:13:15.877Z,25.84
2016-08-18T09:14:15.912Z,25.87
2016-08-18T09:15:15.220Z,25.93
2016-08-18T09:16:15.251Z,26.02
2016-08-18T09:17:15.286Z,26.1
2016-08-18T09:18:14.597Z,26.15
2016-08-18T09:19:15.338Z,26.13
2016-08-18T09:20:14.663Z,26.1
2016-08-18T09:21:15.403Z,26.09
2016-08-18T09:22:15.429Z,26.02
2016-08-18T09:23:16.204Z,25.93
2016-08-18T09:24:15.524Z,25.95
2016-08-18T09:25:15.423Z,25.98
2016-08-18T09:26:14.836Z,25.99
2016-08-18T09:27:15.603Z,25.96
2016-08-18T09:28:15.628Z,26.03
2016-08-18T09:29:16.389Z,26.02
2016-08-18T09:30:15.884Z,26.15
2016-08-18T09:31:15.794Z,26.15
2016-08-18T09:32:15.732Z,26.1
2016-08-18T09:33:15.759Z,26.22
2016-08-18T09:34:15.083Z,26.15
2016-08-18T09:35:16.439Z,26.29
2016-08-18T09:36:15.891Z,26.31
2016-08-18T09:37:15.894Z,26.26
2016-08-18T09:38:16.610Z,26.23
2016-08-18T09:39:15.958Z,26.37
2016-08-18T09:40:17.342Z,26.44
2016-08-18T09:41:15.302Z,26.33
2016-08-18T09:42:16.036Z,26.45
2016-08-18T09:43:16.887Z,26.56
2016-08-18T09:44:16.094Z,26.6
2016-08-18T09:45:17.424Z,26.6
2016-08-18T09:46:16.159Z,26.62
2016-08-18T09:47:16.177Z,26.63
2016-08-18T09:48:15.497Z,26.63
2016-08-18T09:49:16.954Z,26.59
2016-08-18T09:50:17.256Z,26.68
2016-08-18T09:51:16.304Z,26.77
2016-08-18T09:52:16.355Z,26.75
2016-08-18T09:53:16.407Z,26.81
2016-08-18T09:54:15.723Z,26.75
2016-08-18T09:55:15.834Z,26.81
2016-08-18T09:56:15.738Z,26.88
2016-08-18T09:57:16.512Z,26.92
2016-08-18T09:58:15.810Z,26.93
2016-08-18T09:59:16.538Z,26.83
2016-08-18T10:00:16.654Z,26.83
2016-08-18T10:01:16.622Z,26.84
2016-08-18T10:02:16.628Z,26.93
2016-08-18T10:03:16.670Z,26.93
2016-08-18T10:04:15.977Z,27.07
2016-08-18T10:05:17.760Z,27.07
2016-08-18T10:06:16.747Z,27.03
2016-08-18T10:07:16.788Z,26.92
2016-08-18T10:08:16.829Z,26.9
2016-08-18T10:09:16.127Z,26.9
2016-08-18T10:10:16.158Z,26.97
2016-08-18T10:11:16.199Z,27.02
2016-08-18T10:12:16.928Z,27.08
2016-08-18T10:13:17.672Z,27.14
2016-08-18T10:14:17.701Z,27.25
2016-08-18T10:15:16.312Z,27.18
2016-08-18T10:16:17.762Z,27.32
2016-08-18T10:17:17.080Z,27.26
2016-08-18T10:18:17.119Z,27.3
2016-08-18T10:19:16.430Z,27.21
2016-08-18T10:20:17.173Z,27.2
2016-08-18T10:21:16.491Z,27.26
2016-08-18T10:22:17.232Z,27.22
2016-08-18T10:23:16.554Z,27.26
2016-08-18T10:24:17.296Z,27.18
2016-08-18T10:25:17.073Z,27.29
2016-08-18T10:26:16.644Z,27.33
2016-08-18T10:27:18.094Z,27.22
2016-08-18T10:28:18.137Z,27.36
2016-08-18T10:29:18.159Z,27.33
2016-08-18T10:30:16.762Z,27.33
2016-08-18T10:31:17.507Z,27.35
2016-08-18T10:32:16.827Z,27.33
2016-08-18T10:33:18.279Z,27.33
2016-08-18T10:34:17.599Z,27.47
2016-08-18T10:35:17.629Z,27.49
2016-08-18T10:36:17.658Z,27.54
2016-08-18T10:37:17.061Z,27.55
2016-08-18T10:38:17.725Z,27.55
2016-08-18T10:39:17.753Z,27.68
2016-08-18T10:40:17.076Z,27.71
2016-08-18T10:41:17.811Z,27.74
2016-08-18T10:42:17.855Z,27.74
2016-08-18T10:43:17.162Z,27.7
2016-08-18T10:44:17.910Z,27.75
2016-08-18T10:45:18.417Z,27.82
2016-08-18T10:46:17.963Z,27.86
2016-08-18T10:47:17.287Z,27.85
2016-08-18T10:48:18.047Z,27.82
2016-08-18T10:49:18.777Z,27.8
2016-08-18T10:50:18.096Z,27.83
2016-08-18T10:51:18.120Z,27.87
2016-08-18T10:52:17.435Z,27.77
2016-08-18T10:53:18.189Z,27.73
2016-08-18T10:54:18.240Z,27.67
2016-08-18T10:55:18.355Z,27.58
2016-08-18T10:56:17.574Z,27.59
2016-08-18T10:57:19.013Z,27.39
2016-08-18T10:58:19.057Z,27.37
2016-08-18T10:59:17.655Z,27.39
2016-08-18T11:00:18.395Z,27.45
2016-08-18T11:01:17.716Z,27.45
2016-08-18T11:02:18.457Z,27.45
2016-08-18T11:03:18.489Z,27.49
2016-08-18T11:04:18.516Z,27.48
2016-08-18T11:05:18.578Z,27.45
2016-08-18T11:06:17.877Z,27.44
2016-08-18T11:07:19.321Z,27.36
2016-08-18T11:08:19.350Z,27.36
2016-08-18T11:09:18.670Z,27.36
2016-08-18T11:10:18.201Z,27.47
2016-08-18T11:11:18.727Z,27.29
2016-08-18T11:12:18.068Z,27.36
2016-08-18T11:13:18.088Z,27.27
2016-08-18T11:14:18.111Z,27.2
2016-08-18T11:15:18.875Z,27.2
2016-08-18T11:16:18.183Z,27.27
2016-08-18T11:17:19.623Z,27.21
2016-08-18T11:18:18.245Z,27.03
2016-08-18T11:19:19.685Z,27.08
2016-08-18T11:20:19.006Z,27.1
2016-08-18T11:21:18.329Z,27.05
2016-08-18T11:22:18.395Z,27.08
2016-08-18T11:23:19.107Z,27.03
2016-08-18T11:24:18.418Z,27.05
2016-08-18T11:25:18.455Z,26.88
2016-08-18T11:26:18.479Z,26.92
2016-08-18T11:27:18.509Z,26.93
2016-08-18T11:28:19.249Z,26.83
2016-08-18T11:29:19.285Z,26.74
2016-08-18T11:30:18.601Z,26.7
2016-08-18T11:31:20.079Z,26.62
2016-08-18T11:32:20.081Z,26.6
2016-08-18T11:33:18.694Z,26.7
2016-08-18T11:34:18.730Z,26.74
2016-08-18T11:35:18.748Z,26.73
2016-08-18T11:36:19.494Z,26.62
2016-08-18T11:37:19.519Z,26.7
2016-08-18T11:38:20.319Z,26.65
2016-08-18T11:39:18.880Z,26.63
2016-08-18T11:40:19.142Z,26.71
2016-08-18T11:41:20.355Z,26.71
2016-08-18T11:42:20.395Z,26.68
2016-08-18T11:43:19.702Z,26.74
2016-08-18T11:44:19.754Z,26.8
2016-08-18T11:45:19.771Z,26.84
2016-08-18T11:46:19.203Z,26.85
2016-08-18T11:47:19.821Z,26.85
2016-08-18T11:48:19.144Z,26.81
2016-08-18T11:49:19.885Z,26.85
2016-08-18T11:50:19.930Z,26.84
2016-08-18T11:51:20.739Z,26.93
2016-08-18T11:52:19.264Z,27.05
2016-08-18T11:53:19.294Z,27.05
2016-08-18T11:54:19.325Z,27.08
2016-08-18T11:55:20.787Z,27.11
2016-08-18T11:56:20.111Z,27.14
2016-08-18T12:12:00.037Z,26.83
2016-08-18T12:12:59.403Z,26.83
2016-08-18T12:13:58.666Z,26.83
2016-08-18T12:14:59.301Z,26.84
2016-08-18T12:16:00.039Z,26.88
2016-08-18T12:17:00.079Z,26.96
2016-08-18T12:17:59.411Z,27.03
2016-08-18T12:19:00.132Z,27.02
2016-08-18T12:20:00.166Z,26.96
2016-08-18T12:21:00.900Z,27.05
2016-08-18T12:22:00.933Z,27.03
2016-08-18T12:23:00.251Z,26.93
2016-08-18T12:23:59.573Z,26.95
2016-08-18T12:25:01.023Z,26.84
2016-08-18T12:26:00.342Z,26.75
2016-08-18T12:26:59.663Z,26.75
2016-08-18T12:28:00.401Z,26.75
2016-08-18T12:28:59.732Z,26.78
2016-08-18T12:30:00.462Z,26.66
2016-08-18T12:30:59.783Z,26.7
2016-08-18T12:32:00.542Z,26.66
2016-08-18T12:33:00.556Z,26.59
2016-08-18T12:34:00.585Z,26.6
2016-08-18T12:35:00.610Z,26.55
2016-08-18T12:35:59.929Z,26.6
2016-08-18T12:37:00.680Z,26.65
2016-08-18T12:37:59.991Z,26.63
2016-08-18T12:39:00.747Z,26.65
2016-08-18T12:40:00.757Z,26.59
2016-08-18T12:41:00.784Z,26.63
2016-08-18T12:42:00.113Z,26.56
2016-08-18T12:43:00.134Z,26.59
2016-08-18T12:44:00.168Z,26.63
2016-08-18T12:45:00.904Z,26.66
2016-08-18T12:46:00.227Z,26.77
2016-08-18T12:47:01.682Z,26.75
2016-08-18T12:48:01.713Z,26.75
2016-08-18T12:49:01.022Z,26.88
2016-08-18T12:50:01.056Z,26.93
2016-08-18T12:51:01.084Z,26.85
2016-08-18T12:52:01.169Z,27.02
2016-08-18T12:53:00.454Z,27.07
2016-08-18T12:54:01.179Z,27.1
2016-08-18T12:55:01.204Z,27.11
2016-08-18T12:56:00.520Z,27.15
2016-08-18T12:57:01.287Z,27.17
2016-08-18T12:58:01.999Z,27.18
2016-08-18T12:59:01.328Z,27.22
2016-08-18T13:00:01.362Z,27.21
2016-08-18T13:01:01.383Z,27.32
2016-08-18T13:02:01.421Z,27.26
2016-08-18T13:03:01.447Z,27.21
2016-08-18T13:04:01.478Z,27.3
2016-08-18T13:05:01.511Z,27.26
2016-08-18T13:06:01.560Z,27.25
2016-08-18T13:07:01.565Z,27.39
2016-08-18T13:08:00.890Z,27.35
2016-08-18T13:09:02.360Z,27.22
2016-08-18T13:10:01.701Z,27.35
2016-08-18T13:11:02.401Z,27.42
2016-08-18T13:12:16.624Z,27.51